sensor_id;sensor_type;location;lat;lon;timestamp;P1;durP1;ratioP1;P2;durP2;ratioP2
50205;SDS011;36098;48.390;10.856;2022-12-29T00:02:02;3.25;;;1.88;;
50205;SDS011;36098;48.390;10.856;2022-12-29T00:04:27;2.25;;;1.70;;
50205;SDS011;36098;48.390;10.856;2022-12-29T00:06:53;2.42;;;1.85;;
50205;SDS011;36098;48.390;10.856;2022-12-29T00:09:19;3.13;;;2.28;;
50205;SDS011;36098;48.390;10.856;2022-12-29T00:11:44;2.47;;;1.95;;
50205;SDS011;36098;48.390;10.856;2022-12-29T00:14:10;3.42;;;1.98;;
50205;SDS011;36098;48.390;10.856;2022-12-29T00:16:55;3.38;;;1.83;;
50205;SDS011;36098;48.390;10.856;2022-12-29T00:19:21;3.17;;;1.92;;
50205;SDS011;36098;48.390;10.856;2022-12-29T00:22:05;3.20;;;1.73;;
50205;SDS011;36098;48.390;10.856;2022-12-29T00:24:48;2.60;;;1.83;;
50205;SDS011;36098;48.390;10.856;2022-12-29T00:27:32;2.28;;;1.70;;
50205;SDS011;36098;48.390;10.856;2022-12-29T00:30:20;2.88;;;2.00;;
50205;SDS011;36098;48.390;10.856;2022-12-29T00:33:12;2.95;;;2.03;;
50205;SDS011;36098;48.390;10.856;2022-12-29T00:35:58;3.00;;;1.70;;
50205;SDS011;36098;48.390;10.856;2022-12-29T00:38:30;2.83;;;1.80;;
50205;SDS011;36098;48.390;10.856;2022-12-29T00:41:16;2.00;;;1.50;;
50205;SDS011;36098;48.390;10.856;2022-12-29T00:44:00;4.53;;;1.70;;
50205;SDS011;36098;48.390;10.856;2022-12-29T00:46:32;2.70;;;1.88;;
50205;SDS011;36098;48.390;10.856;2022-12-29T00:48:58;2.47;;;1.65;;
50205;SDS011;36098;48.390;10.856;2022-12-29T00:51:42;2.88;;;1.90;;
50205;SDS011;36098;48.390;10.856;2022-12-29T00:54:08;2.60;;;1.80;;
50205;SDS011;36098;48.390;10.856;2022-12-29T00:56:33;2.45;;;1.77;;
50205;SDS011;36098;48.390;10.856;2022-12-29T00:59:02;2.20;;;1.75;;
50205;SDS011;36098;48.390;10.856;2022-12-29T01:01:28;2.70;;;1.63;;
50205;SDS011;36098;48.390;10.856;2022-12-29T01:03:54;2.47;;;1.83;;
50205;SDS011;36098;48.390;10.856;2022-12-29T01:06:19;2.47;;;1.60;;
50205;SDS011;36098;48.390;10.856;2022-12-29T01:08:44;2.35;;;1.50;;
50205;SDS011;36098;48.390;10.856;2022-12-29T01:11:10;2.30;;;1.60;;
50205;SDS011;36098;48.390;10.856;2022-12-29T01:13:37;3.17;;;2.00;;
50205;SDS011;36098;48.390;10.856;2022-12-29T01:16:03;1.77;;;1.55;;
50205;SDS011;36098;48.390;10.856;2022-12-29T01:18:29;2.85;;;1.50;;
50205;SDS011;36098;48.390;10.856;2022-12-29T01:20:58;2.45;;;1.58;;
50205;SDS011;36098;48.390;10.856;2022-12-29T01:23:25;2.03;;;1.55;;
50205;SDS011;36098;48.390;10.856;2022-12-29T01:25:50;2.08;;;1.33;;
50205;SDS011;36098;48.390;10.856;2022-12-29T01:28:15;2.00;;;1.48;;
50205;SDS011;36098;48.390;10.856;2022-12-29T01:30:40;3.00;;;1.65;;
50205;SDS011;36098;48.390;10.856;2022-12-29T01:33:06;2.70;;;1.65;;
50205;SDS011;36098;48.390;10.856;2022-12-29T01:35:31;3.35;;;1.60;;
50205;SDS011;36098;48.390;10.856;2022-12-29T01:37:56;2.45;;;1.55;;
50205;SDS011;36098;48.390;10.856;2022-12-29T01:40:22;2.28;;;1.60;;
50205;SDS011;36098;48.390;10.856;2022-12-29T01:42:47;2.47;;;1.60;;
50205;SDS011;36098;48.390;10.856;2022-12-29T01:45:13;2.28;;;1.60;;
50205;SDS011;36098;48.390;10.856;2022-12-29T01:47:44;1.58;;;1.35;;
50205;SDS011;36098;48.390;10.856;2022-12-29T01:52:44;2.25;;;1.58;;
50205;SDS011;36098;48.390;10.856;2022-12-29T01:55:16;1.97;;;1.50;;
50205;SDS011;36098;48.390;10.856;2022-12-29T01:57:44;2.35;;;1.50;;
50205;SDS011;36098;48.390;10.856;2022-12-29T02:00:14;1.98;;;1.50;;
50205;SDS011;36098;48.390;10.856;2022-12-29T02:02:44;2.05;;;1.52;;
50205;SDS011;36098;48.390;10.856;2022-12-29T02:05:21;2.70;;;1.30;;
50205;SDS011;36098;48.390;10.856;2022-12-29T02:07:51;2.00;;;1.40;;
50205;SDS011;36098;48.390;10.856;2022-12-29T02:10:19;1.95;;;1.38;;
50205;SDS011;36098;48.390;10.856;2022-12-29T02:12:48;1.80;;;1.38;;
50205;SDS011;36098;48.390;10.856;2022-12-29T02:15:13;3.17;;;1.50;;
50205;SDS011;36098;48.390;10.856;2022-12-29T02:23:48;2.42;;;1.42;;
50205;SDS011;36098;48.390;10.856;2022-12-29T02:32:36;2.20;;;1.30;;
50205;SDS011;36098;48.390;10.856;2022-12-29T02:40:42;1.95;;;1.30;;
50205;SDS011;36098;48.390;10.856;2022-12-29T02:51:21;1.30;;;1.10;;
50205;SDS011;36098;48.390;10.856;2022-12-29T02:53:51;1.95;;;1.40;;
50205;SDS011;36098;48.390;10.856;2022-12-29T02:56:36;1.77;;;1.30;;
50205;SDS011;36098;48.390;10.856;2022-12-29T02:59:02;2.75;;;1.10;;
50205;SDS011;36098;48.390;10.856;2022-12-29T03:01:44;1.40;;;1.20;;
50205;SDS011;36098;48.390;10.856;2022-12-29T03:13:14;2.03;;;1.30;;
50205;SDS011;36098;48.390;10.856;2022-12-29T03:24:31;3.00;;;1.25;;
50205;SDS011;36098;48.390;10.856;2022-12-29T03:27:01;2.63;;;1.25;;
50205;SDS011;36098;48.390;10.856;2022-12-29T03:29:29;1.63;;;1.30;;
50205;SDS011;36098;48.390;10.856;2022-12-29T03:31:58;1.20;;;1.00;;
50205;SDS011;36098;48.390;10.856;2022-12-29T03:34:24;1.42;;;1.08;;
50205;SDS011;36098;48.390;10.856;2022-12-29T03:36:52;1.67;;;1.10;;
50205;SDS011;36098;48.390;10.856;2022-12-29T03:39:22;2.00;;;1.20;;
50205;SDS011;36098;48.390;10.856;2022-12-29T03:41:49;1.83;;;1.10;;
50205;SDS011;36098;48.390;10.856;2022-12-29T03:44:18;1.40;;;1.00;;
50205;SDS011;36098;48.390;10.856;2022-12-29T03:46:43;1.20;;;1.00;;
50205;SDS011;36098;48.390;10.856;2022-12-29T03:49:09;1.40;;;1.10;;
50205;SDS011;36098;48.390;10.856;2022-12-29T03:51:34;1.55;;;1.00;;
50205;SDS011;36098;48.390;10.856;2022-12-29T03:53:59;1.27;;;1.00;;
50205;SDS011;36098;48.390;10.856;2022-12-29T03:56:24;1.42;;;1.10;;
50205;SDS011;36098;48.390;10.856;2022-12-29T03:58:50;1.92;;;1.13;;
50205;SDS011;36098;48.390;10.856;2022-12-29T04:01:15;1.67;;;1.13;;
50205;SDS011;36098;48.390;10.856;2022-12-29T04:03:40;1.40;;;0.95;;
50205;SDS011;36098;48.390;10.856;2022-12-29T04:06:06;1.55;;;1.10;;
50205;SDS011;36098;48.390;10.856;2022-12-29T04:08:32;1.48;;;1.13;;
50205;SDS011;36098;48.390;10.856;2022-12-29T04:10:57;1.63;;;1.00;;
50205;SDS011;36098;48.390;10.856;2022-12-29T04:13:23;1.83;;;1.00;;
50205;SDS011;36098;48.390;10.856;2022-12-29T04:15:48;1.77;;;0.93;;
50205;SDS011;36098;48.390;10.856;2022-12-29T04:18:13;1.38;;;1.10;;
50205;SDS011;36098;48.390;10.856;2022-12-29T04:20:38;1.27;;;0.90;;
50205;SDS011;36098;48.390;10.856;2022-12-29T04:23:22;1.50;;;0.95;;
50205;SDS011;36098;48.390;10.856;2022-12-29T04:25:48;1.33;;;1.10;;
50205;SDS011;36098;48.390;10.856;2022-12-29T04:28:13;1.60;;;1.00;;
50205;SDS011;36098;48.390;10.856;2022-12-29T04:30:39;1.38;;;1.05;;
50205;SDS011;36098;48.390;10.856;2022-12-29T04:33:05;1.38;;;1.00;;
50205;SDS011;36098;48.390;10.856;2022-12-29T04:35:30;0.98;;;0.80;;
50205;SDS011;36098;48.390;10.856;2022-12-29T04:37:55;1.23;;;1.00;;
50205;SDS011;36098;48.390;10.856;2022-12-29T04:40:21;1.42;;;1.10;;
50205;SDS011;36098;48.390;10.856;2022-12-29T04:42:48;1.92;;;1.20;;
50205;SDS011;36098;48.390;10.856;2022-12-29T04:45:13;1.42;;;1.00;;
50205;SDS011;36098;48.390;10.856;2022-12-29T04:47:38;2.03;;;1.10;;
50205;SDS011;36098;48.390;10.856;2022-12-29T04:50:04;0.98;;;0.80;;
50205;SDS011;36098;48.390;10.856;2022-12-29T04:52:29;1.48;;;1.02;;
50205;SDS011;36098;48.390;10.856;2022-12-29T04:54:55;1.15;;;1.05;;
50205;SDS011;36098;48.390;10.856;2022-12-29T04:57:20;2.45;;;1.00;;
50205;SDS011;36098;48.390;10.856;2022-12-29T04:59:45;1.20;;;0.95;;
50205;SDS011;36098;48.390;10.856;2022-12-29T05:02:10;1.08;;;0.80;;
50205;SDS011;36098;48.390;10.856;2022-12-29T05:04:36;2.20;;;0.93;;
50205;SDS011;36098;48.390;10.856;2022-12-29T05:07:01;1.15;;;0.77;;
50205;SDS011;36098;48.390;10.856;2022-12-29T05:09:26;1.40;;;0.80;;
50205;SDS011;36098;48.390;10.856;2022-12-29T05:11:51;1.23;;;0.90;;
50205;SDS011;36098;48.390;10.856;2022-12-29T05:14:17;1.20;;;0.85;;
50205;SDS011;36098;48.390;10.856;2022-12-29T05:16:42;0.90;;;0.70;;
50205;SDS011;36098;48.390;10.856;2022-12-29T05:19:07;1.08;;;0.90;;
50205;SDS011;36098;48.390;10.856;2022-12-29T05:21:33;0.88;;;0.80;;
50205;SDS011;36098;48.390;10.856;2022-12-29T05:23:58;1.70;;;1.00;;
50205;SDS011;36098;48.390;10.856;2022-12-29T05:26:23;1.10;;;0.90;;
50205;SDS011;36098;48.390;10.856;2022-12-29T05:28:48;1.25;;;0.80;;
50205;SDS011;36098;48.390;10.856;2022-12-29T05:31:14;1.15;;;0.73;;
50205;SDS011;36098;48.390;10.856;2022-12-29T05:33:39;1.55;;;0.85;;
50205;SDS011;36098;48.390;10.856;2022-12-29T05:36:05;1.40;;;0.88;;
50205;SDS011;36098;48.390;10.856;2022-12-29T05:38:31;1.33;;;0.80;;
50205;SDS011;36098;48.390;10.856;2022-12-29T05:40:56;1.23;;;0.75;;
50205;SDS011;36098;48.390;10.856;2022-12-29T05:43:21;0.90;;;0.70;;
50205;SDS011;36098;48.390;10.856;2022-12-29T05:45:50;1.80;;;1.00;;
50205;SDS011;36098;48.390;10.856;2022-12-29T05:48:16;2.03;;;0.90;;
50205;SDS011;36098;48.390;10.856;2022-12-29T05:50:41;1.00;;;0.80;;
50205;SDS011;36098;48.390;10.856;2022-12-29T05:53:06;0.85;;;0.65;;
50205;SDS011;36098;48.390;10.856;2022-12-29T05:55:31;2.05;;;0.77;;
50205;SDS011;36098;48.390;10.856;2022-12-29T05:57:57;0.93;;;0.70;;
50205;SDS011;36098;48.390;10.856;2022-12-29T06:00:23;0.95;;;0.68;;
50205;SDS011;36098;48.390;10.856;2022-12-29T06:02:48;2.55;;;0.88;;
50205;SDS011;36098;48.390;10.856;2022-12-29T06:05:14;1.40;;;0.90;;
50205;SDS011;36098;48.390;10.856;2022-12-29T06:07:39;2.55;;;0.73;;
50205;SDS011;36098;48.390;10.856;2022-12-29T06:10:05;2.45;;;0.77;;
50205;SDS011;36098;48.390;10.856;2022-12-29T06:12:30;2.50;;;0.80;;
50205;SDS011;36098;48.390;10.856;2022-12-29T06:14:56;3.30;;;0.70;;
50205;SDS011;36098;48.390;10.856;2022-12-29T06:17:21;1.60;;;0.85;;
50205;SDS011;36098;48.390;10.856;2022-12-29T06:19:46;1.35;;;0.70;;
50205;SDS011;36098;48.390;10.856;2022-12-29T06:22:11;1.17;;;0.88;;
50205;SDS011;36098;48.390;10.856;2022-12-29T06:24:37;1.50;;;0.60;;
50205;SDS011;36098;48.390;10.856;2022-12-29T06:27:03;2.17;;;0.80;;
50205;SDS011;36098;48.390;10.856;2022-12-29T06:29:28;1.25;;;0.73;;
50205;SDS011;36098;48.390;10.856;2022-12-29T06:31:53;0.98;;;0.73;;
50205;SDS011;36098;48.390;10.856;2022-12-29T06:34:22;1.15;;;0.77;;
50205;SDS011;36098;48.390;10.856;2022-12-29T06:36:49;1.13;;;0.60;;
50205;SDS011;36098;48.390;10.856;2022-12-29T06:39:14;1.45;;;0.70;;
50205;SDS011;36098;48.390;10.856;2022-12-29T06:41:39;1.10;;;0.75;;
50205;SDS011;36098;48.390;10.856;2022-12-29T06:44:04;1.23;;;0.88;;
50205;SDS011;36098;48.390;10.856;2022-12-29T06:46:30;0.93;;;0.70;;
50205;SDS011;36098;48.390;10.856;2022-12-29T06:48:55;0.80;;;0.70;;
50205;SDS011;36098;48.390;10.856;2022-12-29T06:51:20;1.00;;;0.63;;
50205;SDS011;36098;48.390;10.856;2022-12-29T06:53:45;0.85;;;0.70;;
50205;SDS011;36098;48.390;10.856;2022-12-29T06:56:11;0.82;;;0.55;;
50205;SDS011;36098;48.390;10.856;2022-12-29T06:58:36;0.93;;;0.70;;
50205;SDS011;36098;48.390;10.856;2022-12-29T07:01:01;1.10;;;0.70;;
50205;SDS011;36098;48.390;10.856;2022-12-29T07:03:26;1.00;;;0.70;;
50205;SDS011;36098;48.390;10.856;2022-12-29T07:05:52;1.50;;;0.90;;
50205;SDS011;36098;48.390;10.856;2022-12-29T07:08:17;0.70;;;0.57;;
50205;SDS011;36098;48.390;10.856;2022-12-29T07:10:42;1.73;;;0.70;;
50205;SDS011;36098;48.390;10.856;2022-12-29T07:13:08;0.98;;;0.80;;
50205;SDS011;36098;48.390;10.856;2022-12-29T07:15:33;1.00;;;0.70;;
50205;SDS011;36098;48.390;10.856;2022-12-29T07:17:59;0.65;;;0.60;;
50205;SDS011;36098;48.390;10.856;2022-12-29T07:20:24;1.00;;;0.70;;
50205;SDS011;36098;48.390;10.856;2022-12-29T07:22:50;1.88;;;0.90;;
50205;SDS011;36098;48.390;10.856;2022-12-29T07:25:15;1.30;;;0.68;;
50205;SDS011;36098;48.390;10.856;2022-12-29T07:27:40;0.95;;;0.77;;
50205;SDS011;36098;48.390;10.856;2022-12-29T07:30:06;1.90;;;0.63;;
50205;SDS011;36098;48.390;10.856;2022-12-29T07:32:32;2.65;;;0.70;;
50205;SDS011;36098;48.390;10.856;2022-12-29T07:34:58;1.13;;;0.60;;
50205;SDS011;36098;48.390;10.856;2022-12-29T07:37:23;1.55;;;0.77;;
50205;SDS011;36098;48.390;10.856;2022-12-29T07:39:49;1.00;;;0.70;;
50205;SDS011;36098;48.390;10.856;2022-12-29T07:42:14;1.55;;;0.63;;
50205;SDS011;36098;48.390;10.856;2022-12-29T07:44:39;2.65;;;0.60;;
50205;SDS011;36098;48.390;10.856;2022-12-29T07:47:05;0.90;;;0.80;;
50205;SDS011;36098;48.390;10.856;2022-12-29T07:49:30;1.27;;;0.70;;
50205;SDS011;36098;48.390;10.856;2022-12-29T07:51:55;3.25;;;0.80;;
50205;SDS011;36098;48.390;10.856;2022-12-29T07:54:20;2.17;;;0.90;;
50205;SDS011;36098;48.390;10.856;2022-12-29T07:56:47;2.03;;;0.60;;
50205;SDS011;36098;48.390;10.856;2022-12-29T07:59:12;1.75;;;0.80;;
50205;SDS011;36098;48.390;10.856;2022-12-29T08:01:38;4.28;;;0.98;;
50205;SDS011;36098;48.390;10.856;2022-12-29T08:04:04;4.68;;;0.63;;
50205;SDS011;36098;48.390;10.856;2022-12-29T08:06:29;2.22;;;0.90;;
50205;SDS011;36098;48.390;10.856;2022-12-29T08:08:55;4.13;;;1.00;;
50205;SDS011;36098;48.390;10.856;2022-12-29T08:11:21;10.02;;;0.90;;
50205;SDS011;36098;48.390;10.856;2022-12-29T08:13:47;4.75;;;0.70;;
50205;SDS011;36098;48.390;10.856;2022-12-29T08:16:12;3.28;;;0.82;;
50205;SDS011;36098;48.390;10.856;2022-12-29T08:18:37;1.83;;;0.80;;
50205;SDS011;36098;48.390;10.856;2022-12-29T08:21:03;2.83;;;0.80;;
50205;SDS011;36098;48.390;10.856;2022-12-29T08:23:29;2.38;;;0.73;;
50205;SDS011;36098;48.390;10.856;2022-12-29T08:26:01;2.83;;;0.70;;
50205;SDS011;36098;48.390;10.856;2022-12-29T08:28:29;2.05;;;0.85;;
50205;SDS011;36098;48.390;10.856;2022-12-29T08:30:58;2.58;;;0.77;;
50205;SDS011;36098;48.390;10.856;2022-12-29T08:33:24;1.67;;;0.70;;
50205;SDS011;36098;48.390;10.856;2022-12-29T08:35:50;5.22;;;0.80;;
50205;SDS011;36098;48.390;10.856;2022-12-29T08:38:15;9.73;;;0.82;;
50205;SDS011;36098;48.390;10.856;2022-12-29T08:40:41;1.88;;;0.95;;
50205;SDS011;36098;48.390;10.856;2022-12-29T08:43:06;1.85;;;0.70;;
50205;SDS011;36098;48.390;10.856;2022-12-29T08:45:32;2.08;;;0.80;;
50205;SDS011;36098;48.390;10.856;2022-12-29T08:47:57;2.20;;;0.75;;
50205;SDS011;36098;48.390;10.856;2022-12-29T08:50:22;1.60;;;0.70;;
50205;SDS011;36098;48.390;10.856;2022-12-29T08:52:47;3.28;;;0.75;;
50205;SDS011;36098;48.390;10.856;2022-12-29T08:55:13;5.95;;;1.33;;
50205;SDS011;36098;48.390;10.856;2022-12-29T08:57:38;1.70;;;0.68;;
50205;SDS011;36098;48.390;10.856;2022-12-29T09:00:04;2.85;;;0.90;;
50205;SDS011;36098;48.390;10.856;2022-12-29T09:02:30;1.23;;;0.77;;
50205;SDS011;36098;48.390;10.856;2022-12-29T09:04:55;6.10;;;0.80;;
50205;SDS011;36098;48.390;10.856;2022-12-29T09:07:22;1.48;;;0.57;;
50205;SDS011;36098;48.390;10.856;2022-12-29T09:09:47;2.35;;;0.60;;
50205;SDS011;36098;48.390;10.856;2022-12-29T09:12:13;4.03;;;0.85;;
50205;SDS011;36098;48.390;10.856;2022-12-29T09:14:38;2.28;;;0.70;;
50205;SDS011;36098;48.390;10.856;2022-12-29T09:17:03;6.63;;;0.80;;
50205;SDS011;36098;48.390;10.856;2022-12-29T09:22:13;3.45;;;0.70;;
50205;SDS011;36098;48.390;10.856;2022-12-29T09:24:38;2.17;;;0.80;;
50205;SDS011;36098;48.390;10.856;2022-12-29T09:27:03;2.85;;;0.90;;
50205;SDS011;36098;48.390;10.856;2022-12-29T09:29:28;4.10;;;1.00;;
50205;SDS011;36098;48.390;10.856;2022-12-29T09:31:54;4.18;;;1.00;;
50205;SDS011;36098;48.390;10.856;2022-12-29T09:34:19;5.10;;;0.98;;
50205;SDS011;36098;48.390;10.856;2022-12-29T09:36:44;2.50;;;0.90;;
50205;SDS011;36098;48.390;10.856;2022-12-29T09:39:09;4.43;;;0.93;;
50205;SDS011;36098;48.390;10.856;2022-12-29T09:41:43;3.78;;;1.00;;
50205;SDS011;36098;48.390;10.856;2022-12-29T09:47:13;4.95;;;0.90;;
50205;SDS011;36098;48.390;10.856;2022-12-29T09:49:45;3.53;;;0.75;;
50205;SDS011;36098;48.390;10.856;2022-12-29T09:52:29;7.53;;;1.42;;
50205;SDS011;36098;48.390;10.856;2022-12-29T09:55:19;5.07;;;1.10;;
50205;SDS011;36098;48.390;10.856;2022-12-29T09:57:48;2.88;;;1.17;;
50205;SDS011;36098;48.390;10.856;2022-12-29T10:00:17;2.33;;;1.60;;
50205;SDS011;36098;48.390;10.856;2022-12-29T10:05:45;11.00;;;1.40;;
50205;SDS011;36098;48.390;10.856;2022-12-29T10:11:12;5.32;;;1.85;;
50205;SDS011;36098;48.390;10.856;2022-12-29T10:19:34;3.92;;;1.42;;
50205;SDS011;36098;48.390;10.856;2022-12-29T10:25:12;3.20;;;1.50;;
50205;SDS011;36098;48.390;10.856;2022-12-29T10:27:41;4.63;;;1.50;;
50205;SDS011;36098;48.390;10.856;2022-12-29T10:30:11;3.28;;;1.38;;
50205;SDS011;36098;48.390;10.856;2022-12-29T10:32:38;5.70;;;1.40;;
50205;SDS011;36098;48.390;10.856;2022-12-29T10:35:12;3.75;;;1.38;;
50205;SDS011;36098;48.390;10.856;2022-12-29T10:40:26;6.68;;;1.40;;
50205;SDS011;36098;48.390;10.856;2022-12-29T10:42:57;2.53;;;1.20;;
50205;SDS011;36098;48.390;10.856;2022-12-29T10:45:24;6.18;;;1.10;;
50205;SDS011;36098;48.390;10.856;2022-12-29T10:47:59;2.17;;;1.42;;
50205;SDS011;36098;48.390;10.856;2022-12-29T10:52:54;6.97;;;1.35;;
50205;SDS011;36098;48.390;10.856;2022-12-29T10:55:36;18.42;;;1.40;;
50205;SDS011;36098;48.390;10.856;2022-12-29T10:58:07;4.10;;;1.30;;
50205;SDS011;36098;48.390;10.856;2022-12-29T11:00:37;3.13;;;1.20;;
50205;SDS011;36098;48.390;10.856;2022-12-29T11:05:44;5.10;;;0.98;;
50205;SDS011;36098;48.390;10.856;2022-12-29T11:08:16;5.82;;;1.17;;
50205;SDS011;36098;48.390;10.856;2022-12-29T11:10:45;3.95;;;1.30;;
50205;SDS011;36098;48.390;10.856;2022-12-29T11:14:12;6.32;;;1.40;;
50205;SDS011;36098;48.390;10.856;2022-12-29T11:16:13;2.97;;;1.05;;
50205;SDS011;36098;48.390;10.856;2022-12-29T11:18:39;3.85;;;1.05;;
50205;SDS011;36098;48.390;10.856;2022-12-29T11:21:26;17.73;;;1.50;;
50205;SDS011;36098;48.390;10.856;2022-12-29T11:24:02;4.72;;;1.10;;
50205;SDS011;36098;48.390;10.856;2022-12-29T11:26:29;16.08;;;1.20;;
50205;SDS011;36098;48.390;10.856;2022-12-29T11:31:40;8.73;;;1.20;;
50205;SDS011;36098;48.390;10.856;2022-12-29T11:34:07;8.02;;;1.20;;
50205;SDS011;36098;48.390;10.856;2022-12-29T11:36:33;8.35;;;1.10;;
50205;SDS011;36098;48.390;10.856;2022-12-29T11:38:59;2.80;;;1.15;;
50205;SDS011;36098;48.390;10.856;2022-12-29T11:41:26;3.20;;;1.23;;
50205;SDS011;36098;48.390;10.856;2022-12-29T11:43:54;8.68;;;1.45;;
50205;SDS011;36098;48.390;10.856;2022-12-29T11:46:26;4.85;;;1.17;;
50205;SDS011;36098;48.390;10.856;2022-12-29T11:48:54;4.32;;;1.30;;
50205;SDS011;36098;48.390;10.856;2022-12-29T11:51:24;7.97;;;1.35;;
50205;SDS011;36098;48.390;10.856;2022-12-29T11:54:06;5.63;;;1.10;;
50205;SDS011;36098;48.390;10.856;2022-12-29T11:56:41;5.07;;;1.10;;
50205;SDS011;36098;48.390;10.856;2022-12-29T12:01:51;4.13;;;1.00;;
50205;SDS011;36098;48.390;10.856;2022-12-29T12:04:18;3.55;;;0.90;;
50205;SDS011;36098;48.390;10.856;2022-12-29T12:07:01;6.03;;;1.00;;
50205;SDS011;36098;48.390;10.856;2022-12-29T12:09:31;3.45;;;0.90;;
50205;SDS011;36098;48.390;10.856;2022-12-29T12:12:03;5.53;;;1.00;;
50205;SDS011;36098;48.390;10.856;2022-12-29T12:14:45;2.17;;;0.90;;
50205;SDS011;36098;48.390;10.856;2022-12-29T12:17:18;2.72;;;0.80;;
50205;SDS011;36098;48.390;10.856;2022-12-29T12:22:37;2.55;;;0.93;;
50205;SDS011;36098;48.390;10.856;2022-12-29T12:25:23;3.33;;;1.27;;
50205;SDS011;36098;48.390;10.856;2022-12-29T12:27:57;2.80;;;0.80;;
50205;SDS011;36098;48.390;10.856;2022-12-29T12:30:28;3.63;;;1.13;;
50205;SDS011;36098;48.390;10.856;2022-12-29T12:33:04;3.38;;;1.10;;
50205;SDS011;36098;48.390;10.856;2022-12-29T12:58:09;3.57;;;0.87;;
50205;SDS011;36098;48.390;10.856;2022-12-29T13:03:49;2.80;;;0.98;;
50205;SDS011;36098;48.390;10.856;2022-12-29T13:12:45;9.43;;;1.38;;
50205;SDS011;36098;48.390;10.856;2022-12-29T13:23:55;1.75;;;0.80;;
50205;SDS011;36098;48.390;10.856;2022-12-29T13:26:44;5.07;;;1.00;;
50205;SDS011;36098;48.390;10.856;2022-12-29T13:29:23;3.03;;;0.90;;
50205;SDS011;36098;48.390;10.856;2022-12-29T13:37:51;1.13;;;0.77;;
50205;SDS011;36098;48.390;10.856;2022-12-29T13:40:21;2.78;;;0.90;;
50205;SDS011;36098;48.390;10.856;2022-12-29T13:42:50;2.15;;;0.90;;
50205;SDS011;36098;48.390;10.856;2022-12-29T13:45:18;3.35;;;0.75;;
50205;SDS011;36098;48.390;10.856;2022-12-29T13:50:16;6.53;;;1.10;;
50205;SDS011;36098;48.390;10.856;2022-12-29T13:52:45;6.93;;;0.95;;
50205;SDS011;36098;48.390;10.856;2022-12-29T13:58:13;9.27;;;1.33;;
50205;SDS011;36098;48.390;10.856;2022-12-29T14:00:48;3.55;;;0.95;;
50205;SDS011;36098;48.390;10.856;2022-12-29T14:09:02;3.22;;;1.33;;
50205;SDS011;36098;48.390;10.856;2022-12-29T14:11:32;8.93;;;0.98;;
50205;SDS011;36098;48.390;10.856;2022-12-29T14:14:09;5.15;;;0.95;;
50205;SDS011;36098;48.390;10.856;2022-12-29T14:16:46;11.15;;;1.60;;
50205;SDS011;36098;48.390;10.856;2022-12-29T14:19:16;4.70;;;1.00;;
50205;SDS011;36098;48.390;10.856;2022-12-29T14:21:58;9.07;;;1.38;;
50205;SDS011;36098;48.390;10.856;2022-12-29T14:32:38;4.30;;;0.90;;
50205;SDS011;36098;48.390;10.856;2022-12-29T14:34:57;3.67;;;0.73;;
50205;SDS011;36098;48.390;10.856;2022-12-29T14:37:25;2.35;;;0.70;;
50205;SDS011;36098;48.390;10.856;2022-12-29T14:42:44;3.80;;;1.00;;
50205;SDS011;36098;48.390;10.856;2022-12-29T14:58:28;2.15;;;0.90;;
50205;SDS011;36098;48.390;10.856;2022-12-29T15:00:55;2.03;;;0.80;;
50205;SDS011;36098;48.390;10.856;2022-12-29T15:03:28;3.47;;;0.80;;
50205;SDS011;36098;48.390;10.856;2022-12-29T15:08:32;2.47;;;0.80;;
50205;SDS011;36098;48.390;10.856;2022-12-29T15:13:42;2.90;;;0.60;;
50205;SDS011;36098;48.390;10.856;2022-12-29T15:16:42;3.20;;;1.10;;
50205;SDS011;36098;48.390;10.856;2022-12-29T15:19:01;0.98;;;0.68;;
50205;SDS011;36098;48.390;10.856;2022-12-29T15:21:34;1.50;;;0.60;;
50205;SDS011;36098;48.390;10.856;2022-12-29T15:24:02;1.70;;;0.80;;
50205;SDS011;36098;48.390;10.856;2022-12-29T15:29:32;3.83;;;0.85;;
50205;SDS011;36098;48.390;10.856;2022-12-29T15:32:01;2.67;;;1.05;;
50205;SDS011;36098;48.390;10.856;2022-12-29T15:34:40;6.28;;;0.77;;
50205;SDS011;36098;48.390;10.856;2022-12-29T15:37:06;4.10;;;1.00;;
50205;SDS011;36098;48.390;10.856;2022-12-29T15:39:32;6.82;;;0.80;;
50205;SDS011;36098;48.390;10.856;2022-12-29T15:44:55;4.50;;;0.90;;
50205;SDS011;36098;48.390;10.856;2022-12-29T15:47:22;2.95;;;0.85;;
50205;SDS011;36098;48.390;10.856;2022-12-29T15:49:51;5.82;;;0.90;;
50205;SDS011;36098;48.390;10.856;2022-12-29T15:52:23;5.13;;;0.90;;
50205;SDS011;36098;48.390;10.856;2022-12-29T15:54:49;6.85;;;1.00;;
50205;SDS011;36098;48.390;10.856;2022-12-29T15:57:23;3.50;;;0.80;;
50205;SDS011;36098;48.390;10.856;2022-12-29T15:59:54;4.80;;;0.85;;
50205;SDS011;36098;48.390;10.856;2022-12-29T16:02:20;7.13;;;1.05;;
50205;SDS011;36098;48.390;10.856;2022-12-29T16:06:55;3.17;;;1.10;;
50205;SDS011;36098;48.390;10.856;2022-12-29T16:09:40;3.55;;;1.33;;
50205;SDS011;36098;48.390;10.856;2022-12-29T16:12:15;4.78;;;1.00;;
50205;SDS011;36098;48.390;10.856;2022-12-29T16:14:48;5.57;;;0.70;;
50205;SDS011;36098;48.390;10.856;2022-12-29T16:17:20;4.97;;;1.00;;
50205;SDS011;36098;48.390;10.856;2022-12-29T16:19:53;5.07;;;0.90;;
50205;SDS011;36098;48.390;10.856;2022-12-29T16:22:28;4.07;;;1.00;;
50205;SDS011;36098;48.390;10.856;2022-12-29T16:24:56;3.58;;;1.05;;
50205;SDS011;36098;48.390;10.856;2022-12-29T16:27:26;7.95;;;1.15;;
50205;SDS011;36098;48.390;10.856;2022-12-29T16:29:57;7.63;;;1.48;;
50205;SDS011;36098;48.390;10.856;2022-12-29T16:32:28;7.05;;;1.30;;
50205;SDS011;36098;48.390;10.856;2022-12-29T16:35:11;3.40;;;1.20;;
50205;SDS011;36098;48.390;10.856;2022-12-29T16:37:41;8.82;;;1.45;;
50205;SDS011;36098;48.390;10.856;2022-12-29T16:42:56;13.10;;;1.63;;
50205;SDS011;36098;48.390;10.856;2022-12-29T16:48:10;9.13;;;1.10;;
50205;SDS011;36098;48.390;10.856;2022-12-29T16:50:43;8.60;;;1.35;;
50205;SDS011;36098;48.390;10.856;2022-12-29T16:53:47;8.85;;;1.30;;
50205;SDS011;36098;48.390;10.856;2022-12-29T16:56:13;7.88;;;1.58;;
50205;SDS011;36098;48.390;10.856;2022-12-29T16:58:41;12.50;;;1.25;;
50205;SDS011;36098;48.390;10.856;2022-12-29T17:01:11;5.13;;;1.13;;
50205;SDS011;36098;48.390;10.856;2022-12-29T17:03:41;6.13;;;1.00;;
50205;SDS011;36098;48.390;10.856;2022-12-29T17:06:14;5.60;;;0.90;;
50205;SDS011;36098;48.390;10.856;2022-12-29T17:08:41;5.25;;;1.00;;
50205;SDS011;36098;48.390;10.856;2022-12-29T17:11:15;8.48;;;1.20;;
50205;SDS011;36098;48.390;10.856;2022-12-29T17:14:05;3.40;;;0.88;;
50205;SDS011;36098;48.390;10.856;2022-12-29T17:16:35;4.32;;;1.00;;
50205;SDS011;36098;48.390;10.856;2022-12-29T17:19:01;3.60;;;0.93;;
50205;SDS011;36098;48.390;10.856;2022-12-29T17:21:26;3.17;;;0.90;;
50205;SDS011;36098;48.390;10.856;2022-12-29T17:23:51;5.28;;;1.33;;
50205;SDS011;36098;48.390;10.856;2022-12-29T17:26:16;3.25;;;0.90;;
50205;SDS011;36098;48.390;10.856;2022-12-29T17:28:42;3.75;;;0.80;;
50205;SDS011;36098;48.390;10.856;2022-12-29T17:31:10;1.80;;;0.90;;
50205;SDS011;36098;48.390;10.856;2022-12-29T17:33:43;4.93;;;0.90;;
50205;SDS011;36098;48.390;10.856;2022-12-29T17:36:09;7.18;;;1.00;;
50205;SDS011;36098;48.390;10.856;2022-12-29T17:38:35;2.30;;;0.93;;
50205;SDS011;36098;48.390;10.856;2022-12-29T17:41:01;3.42;;;0.70;;
50205;SDS011;36098;48.390;10.856;2022-12-29T17:43:27;3.95;;;0.90;;
50205;SDS011;36098;48.390;10.856;2022-12-29T17:45:53;2.22;;;0.85;;
50205;SDS011;36098;48.390;10.856;2022-12-29T17:48:20;2.88;;;0.90;;